createdAt,value
2022-08-26T00:03:23.608Z,62.40
2022-08-26T00:08:25.974Z,62.70
2022-08-26T00:13:28.645Z,62.80
2022-08-26T00:18:33.193Z,62.60
2022-08-26T00:23:41.201Z,62.80
2022-08-26T00:28:43.529Z,63.00
2022-08-26T00:33:46.080Z,62.90
2022-08-26T00:38:48.330Z,63.00
2022-08-26T00:43:51.602Z,63.20
2022-08-26T00:49:05.404Z,63.00
2022-08-26T00:54:16.489Z,63.00
2022-08-26T00:59:20.474Z,62.90
2022-08-26T01:04:23.763Z,62.90
2022-08-26T01:09:28.739Z,62.70
2022-08-26T01:14:36.764Z,62.90
2022-08-26T01:19:43.951Z,62.80
2022-08-26T01:24:48.347Z,62.80
2022-08-26T01:29:51.799Z,62.60
2022-08-26T01:34:55.797Z,62.70
2022-08-26T01:39:58.953Z,62.40
2022-08-26T01:45:22.818Z,62.50
2022-08-26T01:50:30.466Z,62.20
2022-08-26T01:55:34.416Z,62.10
2022-08-26T02:00:38.212Z,61.70
2022-08-26T02:05:40.651Z,61.80
2022-08-26T02:10:45.983Z,61.60
2022-08-26T02:15:49.219Z,61.20
2022-08-26T02:20:54.459Z,61.50
2022-08-26T02:26:05.026Z,61.50
2022-08-26T02:31:08.113Z,61.10
2022-08-26T02:36:13.456Z,61.00
2022-08-26T02:41:18.072Z,61.10
2022-08-26T02:46:27.666Z,61.40
2022-08-26T02:51:30.481Z,61.60
2022-08-26T02:56:34.727Z,62.00
2022-08-26T03:01:37.880Z,62.20
2022-08-26T03:06:41.436Z,62.30
2022-08-26T03:11:43.951Z,61.90
2022-08-26T03:16:48.357Z,61.70
2022-08-26T03:21:52.998Z,61.00
2022-08-26T03:27:01.956Z,60.60
2022-08-26T03:32:09.549Z,60.80
2022-08-26T03:37:12.880Z,60.50
2022-08-26T03:42:15.976Z,60.40
2022-08-26T03:47:18.524Z,60.50
2022-08-26T03:52:20.846Z,59.90
2022-08-26T03:57:23.394Z,60.00
2022-08-26T04:02:26.603Z,60.00
2022-08-26T04:07:29.443Z,59.80
2022-08-26T04:12:36.631Z,59.80
2022-08-26T04:17:39.179Z,59.70
2022-08-26T04:22:42.447Z,59.60
2022-08-26T04:27:44.718Z,59.20
2022-08-26T04:32:47.044Z,59.10
2022-08-26T04:37:50.498Z,59.30
2022-08-26T04:42:52.959Z,59.00
2022-08-26T04:47:56.547Z,58.80
2022-08-26T04:52:59.603Z,58.60
2022-08-26T04:58:01.944Z,58.70
2022-08-26T05:03:04.417Z,58.30
2022-08-26T05:08:08.814Z,58.30
2022-08-26T05:13:15.609Z,58.10
2022-08-26T05:18:21.399Z,57.70
2022-08-26T05:23:25.219Z,57.60
2022-08-26T05:28:29.689Z,57.20
2022-08-26T05:33:31.947Z,56.80
2022-08-26T05:38:34.840Z,57.30
2022-08-26T05:43:38.604Z,56.40
2022-08-26T05:48:44.232Z,56.00
2022-08-26T05:53:54.462Z,57.00
2022-08-26T05:58:58.383Z,55.90
2022-08-26T06:04:02.642Z,56.30
2022-08-26T06:09:07.184Z,56.50
2022-08-26T06:14:13.330Z,56.70
2022-08-26T06:19:15.832Z,56.70
2022-08-26T06:24:38.055Z,56.20
2022-08-26T06:29:40.455Z,55.00
2022-08-26T06:34:42.702Z,55.60
2022-08-26T06:39:45.348Z,56.30
2022-08-26T06:44:47.608Z,56.50
2022-08-26T06:49:50.482Z,55.90
2022-08-26T06:54:53.495Z,55.90
2022-08-26T06:59:56.384Z,55.30
2022-08-26T07:04:58.716Z,55.10
2022-08-26T07:10:00.993Z,53.20
2022-08-26T07:15:04.291Z,51.40
2022-08-26T07:20:08.581Z,51.10
2022-08-26T07:25:11.521Z,51.70
2022-08-26T07:30:14.719Z,51.80
2022-08-26T07:35:17.508Z,50.60
2022-08-26T07:40:20.321Z,48.70
2022-08-26T07:45:22.790Z,49.40
2022-08-26T07:50:49.268Z,48.20
2022-08-26T07:55:48.472Z,48.70
2022-08-26T08:00:50.759Z,49.50
2022-08-26T08:05:55.784Z,49.00
2022-08-26T08:10:58.743Z,49.40
2022-08-26T08:16:02.025Z,49.40
2022-08-26T08:21:21.081Z,49.60
2022-08-26T08:26:27.320Z,48.30
2022-08-26T08:31:57.025Z,49.80
2022-08-26T08:36:54.720Z,49.70
2022-08-26T08:42:29.279Z,49.00
2022-08-26T08:47:36.794Z,49.40
2022-08-26T08:52:44.432Z,49.20
2022-08-26T08:58:07.410Z,49.20
2022-08-26T09:03:29.937Z,49.40
2022-08-26T09:08:36.950Z,49.60
2022-08-26T09:13:44.694Z,49.70
2022-08-26T09:19:04.703Z,49.20
2022-08-26T09:24:07.664Z,49.60
2022-08-26T09:34:31.522Z,49.80
2022-08-26T09:39:37.737Z,50.00
2022-08-26T09:45:04.290Z,48.90
2022-08-26T09:50:29.351Z,50.20
2022-08-26T09:55:31.928Z,49.80
2022-08-26T10:05:48.350Z,50.90
2022-08-26T10:10:53.194Z,52.00
2022-08-26T10:21:20.914Z,52.30
2022-08-26T10:27:03.738Z,53.10
2022-08-26T10:32:14.164Z,53.50
2022-08-26T10:37:20.554Z,53.70
2022-08-26T10:53:25.417Z,53.50
2022-08-26T11:04:48.235Z,53.70
2022-08-26T11:09:50.913Z,53.60
2022-08-26T11:14:58.869Z,53.90
2022-08-26T11:20:08.942Z,53.60
2022-08-26T11:25:14.391Z,53.40
2022-08-26T11:40:38.672Z,52.70
2022-08-26T11:51:00.560Z,52.60
2022-08-26T11:56:09.118Z,52.30
2022-08-26T12:01:21.631Z,53.10
2022-08-26T12:11:44.319Z,53.50
2022-08-26T12:16:48.152Z,54.00
2022-08-26T12:21:50.808Z,54.00
2022-08-26T12:27:17.058Z,54.10
2022-08-26T12:32:24.937Z,53.90
2022-08-26T12:37:29.989Z,54.30
2022-08-26T12:42:41.475Z,54.70
2022-08-26T12:47:45.524Z,54.80
2022-08-26T13:08:44.822Z,55.50
2022-08-26T13:13:51.790Z,54.20
2022-08-26T13:18:57.230Z,53.40
2022-08-26T13:24:07.583Z,52.70
2022-08-26T13:29:10.790Z,52.50
2022-08-26T13:34:19.534Z,52.30
2022-08-26T13:39:22.990Z,52.20
2022-08-26T13:44:25.305Z,51.80
2022-08-26T13:49:27.598Z,51.80
2022-08-26T13:54:30.125Z,51.90
2022-08-26T13:59:32.715Z,51.60
2022-08-26T14:04:34.986Z,51.40
2022-08-26T14:09:38.503Z,51.20
2022-08-26T14:14:40.881Z,51.40
2022-08-26T14:19:49.015Z,50.90
2022-08-26T14:24:51.583Z,50.60
2022-08-26T14:29:54.450Z,50.80
2022-08-26T14:34:56.821Z,50.80
2022-08-26T14:39:59.118Z,50.40
2022-08-26T14:45:05.162Z,50.20
2022-08-26T14:50:07.928Z,50.60
2022-08-26T14:55:10.368Z,50.90
2022-08-26T15:00:13.331Z,50.90
2022-08-26T15:05:15.720Z,50.50
2022-08-26T15:10:18.184Z,50.70
2022-08-26T15:15:20.552Z,50.70
2022-08-26T15:20:23.247Z,50.60
2022-08-26T15:25:25.567Z,50.60
2022-08-26T15:30:27.910Z,50.40
2022-08-26T15:35:30.209Z,50.10
2022-08-26T15:40:36.097Z,50.20
2022-08-26T15:45:38.390Z,50.00
2022-08-26T15:50:53.684Z,49.80
2022-08-26T15:55:57.198Z,50.20
2022-08-26T16:01:00.234Z,49.90
2022-08-26T16:06:02.832Z,50.00
2022-08-26T16:11:05.940Z,49.90
2022-08-26T16:16:08.649Z,49.80
2022-08-26T16:21:16.790Z,49.80
2022-08-26T16:26:22.927Z,49.60
2022-08-26T16:31:25.283Z,49.90
2022-08-26T16:36:27.628Z,49.70
2022-08-26T16:41:31.387Z,49.70
2022-08-26T16:46:34.641Z,49.70
2022-08-26T16:51:38.065Z,49.50
2022-08-26T16:56:40.805Z,49.90
2022-08-26T17:01:43.095Z,52.00
2022-08-26T17:06:46.199Z,54.70
2022-08-26T17:11:48.480Z,59.80
2022-08-26T17:16:51.393Z,60.70
2022-08-26T17:21:53.717Z,61.40
2022-08-26T17:26:56.260Z,61.80
2022-08-26T17:31:58.516Z,63.70
2022-08-26T17:37:00.806Z,64.60
2022-08-26T17:42:03.266Z,64.10
2022-08-26T17:47:07.244Z,64.60
2022-08-26T17:52:11.582Z,65.00
2022-08-26T17:57:14.028Z,65.30
2022-08-26T18:02:16.447Z,64.80
2022-08-26T18:07:19.080Z,65.30
2022-08-26T18:12:21.359Z,66.00
2022-08-26T18:17:27.831Z,66.30
2022-08-26T18:22:30.394Z,66.50
2022-08-26T18:27:32.865Z,66.80
2022-08-26T18:32:35.668Z,66.50
2022-08-26T18:37:38.311Z,66.70
2022-08-26T18:42:41.451Z,67.10
2022-08-26T18:47:44.193Z,67.10
2022-08-26T18:52:46.705Z,67.50
2022-08-26T18:57:49.556Z,67.50
2022-08-26T19:02:55.882Z,67.30
2022-08-26T19:07:58.365Z,67.10
2022-08-26T19:13:02.547Z,67.00
2022-08-26T19:18:05.225Z,66.90
2022-08-26T19:23:28.242Z,66.40
2022-08-26T19:28:32.713Z,66.40
2022-08-26T19:33:35.046Z,66.40
2022-08-26T19:38:37.378Z,66.30
2022-08-26T19:43:39.882Z,66.10
2022-08-26T19:48:44.481Z,66.10
2022-08-26T19:53:48.305Z,66.00
2022-08-26T19:58:51.336Z,66.10
2022-08-26T20:03:53.587Z,65.80
2022-08-26T20:08:56.254Z,65.50
2022-08-26T20:13:59.774Z,65.50
2022-08-26T20:19:21.902Z,65.50
2022-08-26T20:24:26.434Z,65.20
2022-08-26T20:29:28.727Z,65.20
2022-08-26T20:34:31.131Z,65.10
2022-08-26T20:39:33.378Z,65.00
2022-08-26T20:44:35.732Z,65.10
2022-08-26T20:49:38.206Z,65.20
2022-08-26T20:54:40.811Z,64.90
2022-08-26T20:59:43.615Z,65.00
2022-08-26T21:04:46.486Z,64.90
2022-08-26T21:09:48.797Z,65.00
2022-08-26T21:14:53.912Z,64.90
2022-08-26T21:19:56.188Z,65.00
2022-08-26T21:25:13.847Z,65.10
2022-08-26T21:30:17.100Z,65.10
2022-08-26T21:35:19.466Z,65.10
2022-08-26T21:40:22.043Z,64.80
2022-08-26T21:45:24.397Z,64.70
2022-08-26T21:50:29.542Z,64.80
2022-08-26T21:55:35.924Z,64.90
2022-08-26T22:00:39.007Z,64.60
2022-08-26T22:05:45.104Z,64.50
2022-08-26T22:10:51.955Z,64.20
2022-08-26T22:15:57.007Z,64.30
2022-08-26T22:21:02.371Z,64.40
2022-08-26T22:26:07.431Z,64.60
2022-08-26T22:31:12.468Z,64.10
2022-08-26T22:36:20.956Z,64.20
2022-08-26T22:41:24.011Z,64.30
2022-08-26T22:46:27.464Z,64.30
2022-08-26T22:51:29.896Z,64.40
2022-08-26T22:56:32.241Z,64.40
2022-08-26T23:01:36.992Z,64.10
2022-08-26T23:06:43.289Z,64.20
2022-08-26T23:11:50.190Z,64.30
2022-08-26T23:16:52.657Z,64.40
2022-08-26T23:21:56.402Z,64.50
2022-08-26T23:27:00.636Z,64.60
2022-08-26T23:32:04.420Z,64.60
2022-08-26T23:37:07.772Z,64.60
2022-08-26T23:42:10.898Z,64.70
2022-08-26T23:47:14.211Z,64.40
2022-08-26T23:52:36.338Z,64.60
2022-08-26T23:57:38.739Z,64.90
